Time;durP1;ratioP1;P1;durP2;ratioP2;P2;SDS_P1;SDS_P2;PMS_P1;PMS_P2;Temp;Humidity;BMP_temperature;BMP_pressure;BME280_temperature;BME280_humidity;BME280_pressure;Samples;Min_cycle;Max_cycle;Signal;HPM_P1;HPM_P2
2022/03/03 00:01:51;;;;;;;36.90;20.60;;;;;;;0.06;83.41;100889.30;107759;1243;71966;-67
2022/03/03 00:04:20;;;;;;;40.50;20.80;;;;;;;0.07;83.34;100885.33;107739;1244;71868;-68
2022/03/03 00:06:50;;;;;;;34.10;20.10;;;;;;;0.06;83.34;100877.13;108065;1243;70541;-66
2022/03/03 00:09:19;;;;;;;33.20;19.60;;;;;;;0.07;83.61;100884.29;108049;1242;71600;-68
2022/03/03 00:11:49;;;;;;;36.60;18.90;;;;;;;0.07;83.46;100886.52;108004;1243;60866;-68
2022/03/03 00:14:18;;;;;;;29.00;17.00;;;;;;;0.13;83.47;100886.70;107988;1242;60163;-69
2022/03/03 00:16:47;;;;;;;43.30;23.00;;;;;;;0.19;83.51;100884.32;108064;1243;74335;-69
2022/03/03 00:19:17;;;;;;;31.20;18.40;;;;;;;0.16;83.39;100885.77;107811;1242;73876;-67
2022/03/03 00:22:05;;;;;;;29.30;17.90;;;;;;;0.19;83.60;100880.23;108026;1243;69424;-61
2022/03/03 00:24:34;;;;;;;38.90;20.50;;;;;;;0.16;83.01;100877.73;107790;1244;72334;-65
2022/03/03 00:27:05;;;;;;;35.20;18.90;;;;;;;0.07;82.82;100882.73;107844;1244;61508;-68
2022/03/03 00:29:34;;;;;;;35.30;18.90;;;;;;;0.09;83.30;100880.13;108067;1242;58699;-66
2022/03/03 00:32:04;;;;;;;30.20;17.10;;;;;;;0.13;83.26;100873.71;108067;1244;71666;-63
2022/03/03 00:34:33;;;;;;;34.40;17.80;;;;;;;0.16;83.22;100880.79;108021;1243;70351;-67
2022/03/03 00:37:03;;;;;;;28.30;16.60;;;;;;;0.11;82.55;100873.26;107856;1243;68173;-65
2022/03/03 00:39:32;;;;;;;32.90;18.40;;;;;;;0.14;82.51;100870.25;108059;1243;70964;-69
2022/03/03 00:42:01;;;;;;;26.70;17.40;;;;;;;0.08;82.84;100872.29;107938;1243;60598;-68
2022/03/03 00:44:30;;;;;;;32.80;17.70;;;;;;;0.04;82.87;100872.55;108001;1243;60520;-69
2022/03/03 00:46:59;;;;;;;32.80;18.60;;;;;;;0.10;83.37;100874.61;107772;1244;72534;-68
2022/03/03 00:49:29;;;;;;;31.50;17.60;;;;;;;0.10;83.05;100874.10;108028;1242;72801;-69
2022/03/03 00:51:58;;;;;;;27.90;17.30;;;;;;;0.10;83.07;100876.52;107990;1244;71192;-69
2022/03/03 00:54:27;;;;;;;27.10;14.60;;;;;;;0.05;82.79;100875.61;107863;1242;74694;-71
2022/03/03 00:56:56;;;;;;;30.50;15.70;;;;;;;-0.01;82.91;100870.80;107987;1243;59540;-70
2022/03/03 00:59:25;;;;;;;31.30;16.80;;;;;;;0.04;82.75;100869.14;108033;1243;59610;-70
2022/03/03 01:01:54;;;;;;;30.30;17.20;;;;;;;0.05;83.02;100863.45;108128;1242;72778;-68
2022/03/03 01:04:23;;;;;;;21.40;13.40;;;;;;;0.15;83.24;100861.98;108113;1243;72558;-71
2022/03/03 01:06:52;;;;;;;41.80;19.70;;;;;;;0.17;82.83;100858.16;108052;1244;69932;-70
2022/03/03 01:09:21;;;;;;;28.80;13.50;;;;;;;0.19;83.19;100855.88;108113;1244;72251;-69
2022/03/03 01:11:51;;;;;;;29.10;18.30;;;;;;;0.15;82.87;100855.16;107986;1244;59550;-70
2022/03/03 01:14:23;;;;;;;25.20;13.90;;;;;;;0.18;82.83;100855.75;108064;1244;59594;-70
2022/03/03 01:16:52;;;;;;;28.30;15.50;;;;;;;0.14;82.31;100852.94;108143;1243;75197;-70
2022/03/03 01:19:21;;;;;;;31.40;18.70;;;;;;;0.09;82.81;100851.54;108155;1244;72968;-69
2022/03/03 01:21:50;;;;;;;26.50;15.50;;;;;;;0.10;83.02;100850.50;108236;1243;71639;-68
2022/03/03 01:24:19;;;;;;;36.70;18.90;;;;;;;0.12;83.00;100839.98;108280;1241;71357;-67
2022/03/03 01:26:49;;;;;;;25.30;12.70;;;;;;;0.16;82.73;100839.86;107960;1244;60889;-69
2022/03/03 01:29:17;;;;;;;37.30;17.50;;;;;;;0.15;82.30;100837.33;107868;1244;59494;-71
2022/03/03 01:31:46;;;;;;;26.40;15.90;;;;;;;0.11;82.67;100836.09;108225;1242;75661;-67
2022/03/03 01:34:17;;;;;;;19.50;11.90;;;;;;;0.12;82.60;100839.45;108080;1244;71727;-69
2022/03/03 01:36:46;;;;;;;30.40;17.50;;;;;;;0.01;83.00;100840.45;108069;1243;68394;-70
2022/03/03 01:39:15;;;;;;;27.40;15.90;;;;;;;0.01;82.97;100839.08;107865;1244;72977;-69
2022/03/03 01:41:44;;;;;;;24.20;13.80;;;;;;;0.05;83.27;100836.41;107878;1244;61308;-68
2022/03/03 01:44:14;;;;;;;24.50;12.60;;;;;;;0.12;82.95;100833.64;107920;1243;61662;-69
2022/03/03 01:46:56;;;;;;;25.40;12.80;;;;;;;0.13;82.56;100833.29;107897;1243;75418;-67
2022/03/03 01:49:26;;;;;;;30.40;16.80;;;;;;;0.09;82.49;100830.82;107919;1243;72275;-68
2022/03/03 01:51:55;;;;;;;30.10;16.30;;;;;;;0.03;82.92;100835.95;108046;1244;72032;-70
2022/03/03 01:54:23;;;;;;;29.40;16.40;;;;;;;0.01;83.30;100828.47;107793;1244;75330;-70
2022/03/03 01:56:53;;;;;;;28.60;13.60;;;;;;;0.02;82.85;100830.31;107976;1243;61852;-66
2022/03/03 01:59:21;;;;;;;27.60;16.20;;;;;;;0.01;83.02;100827.77;107917;1243;62348;-68
2022/03/03 02:01:51;;;;;;;28.10;16.50;;;;;;;0.04;83.10;100822.73;107828;1242;74310;-69
2022/03/03 02:04:20;;;;;;;23.00;11.70;;;;;;;0.01;82.93;100828.13;107874;1242;70347;-70
2022/03/03 02:06:49;;;;;;;18.30;11.30;;;;;;;-0.05;83.25;100822.81;109198;1242;67133;-71
2022/03/03 02:09:19;;;;;;;33.70;16.40;;;;;;;-0.07;83.17;100818.57;108025;1243;71962;-72
2022/03/03 02:11:49;;;;;;;36.30;19.10;;;;;;;-0.04;83.15;100818.31;108031;1244;61815;-69
2022/03/03 02:14:18;;;;;;;20.10;12.00;;;;;;;-0.03;83.85;100818.30;107939;1243;59935;-68
2022/03/03 02:16:47;;;;;;;23.40;12.10;;;;;;;0.06;83.70;100823.55;108035;1242;72753;-69
2022/03/03 02:19:21;;;;;;;30.00;16.80;;;;;;;0.04;83.13;100822.73;108079;1241;70321;-67
2022/03/03 02:21:51;;;;;;;29.70;15.80;;;;;;;0.01;83.38;100818.02;108046;1242;70957;-69
2022/03/03 02:24:20;;;;;;;25.70;15.80;;;;;;;-0.03;83.25;100820.70;108134;1242;72768;-68
2022/03/03 02:26:49;;;;;;;36.80;18.60;;;;;;;-0.06;83.26;100818.71;107976;1243;59840;-70
2022/03/03 02:29:18;;;;;;;33.40;18.30;;;;;;;-0.05;83.63;100815.10;107896;1244;58922;-69
2022/03/03 02:31:48;;;;;;;28.50;15.70;;;;;;;-0.03;83.83;100812.46;107921;1244;73269;-69
2022/03/03 02:34:17;;;;;;;36.30;19.30;;;;;;;-0.01;83.59;100808.33;108123;1244;69929;-69
2022/03/03 02:36:47;;;;;;;33.20;17.10;;;;;;;-0.03;83.93;100804.45;107870;1244;69297;-69
2022/03/03 02:39:16;;;;;;;21.00;10.90;;;;;;;-0.05;83.94;100797.63;108162;1243;73861;-68
2022/03/03 02:41:45;;;;;;;19.50;12.40;;;;;;;-0.09;83.38;100798.92;108244;1243;63626;-69
2022/03/03 02:44:13;;;;;;;31.30;17.10;;;;;;;-0.08;83.41;100794.80;107969;1244;61834;-70
2022/03/03 02:46:43;;;;;;;35.70;16.40;;;;;;;-0.13;83.68;100793.58;108107;1243;75408;-71
2022/03/03 02:49:12;;;;;;;28.50;16.50;;;;;;;-0.08;84.18;100792.40;108064;1242;72570;-69
2022/03/03 02:51:41;;;;;;;28.40;15.20;;;;;;;-0.01;83.87;100796.48;107999;1244;71243;-68
2022/03/03 02:54:10;;;;;;;21.60;14.20;;;;;;;-0.10;83.80;100792.81;107858;1242;74847;-68
2022/03/03 02:59:26;;;;;;;24.50;13.80;;;;;;;-0.09;83.55;100796.05;107859;1244;59536;-67
2022/03/03 03:01:56;;;;;;;27.80;14.80;;;;;;;-0.09;83.51;100794.16;107912;1244;75209;-68
2022/03/03 03:04:25;;;;;;;35.00;19.60;;;;;;;-0.15;83.89;100790.89;108113;1242;73873;-68
2022/03/03 03:06:54;;;;;;;31.00;16.40;;;;;;;-0.10;83.75;100793.30;107835;1242;70603;-69
2022/03/03 03:09:23;;;;;;;31.90;17.60;;;;;;;-0.07;83.84;100791.00;108015;1244;73917;-67
2022/03/03 03:11:53;;;;;;;34.00;17.90;;;;;;;-0.10;83.51;100793.85;107818;1244;62908;-69
2022/03/03 03:14:21;;;;;;;29.60;16.90;;;;;;;-0.10;83.70;100784.41;108061;1243;62848;-67
2022/03/03 03:16:51;;;;;;;25.20;15.20;;;;;;;-0.13;83.55;100789.98;107869;1244;74988;-68
2022/03/03 03:19:21;;;;;;;26.80;14.40;;;;;;;-0.13;83.65;100787.57;108032;1242;72520;-68
2022/03/03 03:21:49;;;;;;;36.20;18.80;;;;;;;-0.06;84.02;100787.73;108061;1243;70968;-68
2022/03/03 03:24:19;;;;;;;30.30;17.70;;;;;;;-0.08;83.77;100795.48;107847;1242;73592;-68
2022/03/03 03:26:48;;;;;;;32.20;16.00;;;;;;;-0.06;83.96;100792.16;107975;1244;61673;-69
2022/03/03 03:29:17;;;;;;;27.50;16.10;;;;;;;-0.04;83.87;100785.28;108004;1243;61744;-68
2022/03/03 03:31:45;;;;;;;29.40;15.10;;;;;;;-0.10;83.60;100791.27;108027;1243;74790;-68
2022/03/03 03:34:15;;;;;;;33.80;18.30;;;;;;;-0.12;83.77;100787.89;108013;1242;70980;-68
2022/03/03 03:36:44;;;;;;;33.70;18.00;;;;;;;-0.16;84.08;100784.22;108030;1244;70633;-67
2022/03/03 03:39:13;;;;;;;25.00;13.60;;;;;;;-0.09;84.30;100787.13;107828;1244;75505;-69
2022/03/03 03:41:43;;;;;;;31.10;15.80;;;;;;;-0.01;84.14;100787.59;108012;1242;61988;-70
2022/03/03 03:44:12;;;;;;;36.10;18.30;;;;;;;-0.08;83.79;100790.52;108113;1243;59234;-68
2022/03/03 03:46:41;;;;;;;29.10;15.50;;;;;;;-0.08;84.18;100783.66;108000;1244;71951;-70
2022/03/03 03:49:10;;;;;;;28.30;15.30;;;;;;;-0.03;83.88;100789.88;107836;1244;72831;-70
2022/03/03 03:51:39;;;;;;;26.00;14.50;;;;;;;-0.04;83.68;100782.88;108046;1243;70821;-70
2022/03/03 03:54:08;;;;;;;32.10;18.10;;;;;;;-0.04;83.40;100789.04;108092;1244;73708;-70
2022/03/03 03:56:37;;;;;;;31.10;16.70;;;;;;;-0.03;83.63;100790.22;108050;1242;60288;-72
2022/03/03 03:59:06;;;;;;;25.20;14.40;;;;;;;-0.07;83.69;100792.05;108101;1242;59461;-71
2022/03/03 04:01:35;;;;;;;32.00;14.80;;;;;;;-0.01;83.64;100790.69;108100;1241;75265;-66
2022/03/03 04:04:05;;;;;;;21.10;11.20;;;;;;;-0.02;83.34;100789.48;108098;1241;73290;-69
2022/03/03 04:06:34;;;;;;;35.30;18.20;;;;;;;-0.12;83.06;100791.13;108195;1241;70202;-69
2022/03/03 04:09:05;;;;;;;28.10;16.30;;;;;;;-0.10;83.62;100778.42;108238;1241;73708;-69
2022/03/03 04:11:33;;;;;;;27.90;14.40;;;;;;;-0.02;83.61;100782.82;108260;1241;61776;-70
2022/03/03 04:14:03;;;;;;;33.90;18.20;;;;;;;0.01;83.81;100783.60;108309;1241;62447;-70
2022/03/03 04:16:32;;;;;;;28.30;15.80;;;;;;;0.04;83.58;100786.59;108350;1241;75279;-72
2022/03/03 04:19:01;;;;;;;35.20;18.20;;;;;;;0.02;83.28;100787.86;108381;1241;70976;-69
2022/03/03 04:21:31;;;;;;;17.90;9.10;;;;;;;0.01;83.30;100786.86;108042;1243;67921;-69
2022/03/03 04:24:00;;;;;;;16.90;9.50;;;;;;;0.04;83.22;100786.08;107910;1242;72406;-69
2022/03/03 04:26:29;;;;;;;34.00;17.40;;;;;;;0.01;82.73;100784.28;108089;1241;61614;-69
2022/03/03 04:28:58;;;;;;;30.70;16.40;;;;;;;-0.01;83.06;100786.38;108139;1241;60655;-68
2022/03/03 04:31:27;;;;;;;30.90;16.30;;;;;;;-0.03;83.10;100782.34;108103;1241;73375;-65
2022/03/03 04:33:57;;;;;;;19.50;11.00;;;;;;;-0.04;83.27;100779.62;108111;1241;73168;-70
2022/03/03 04:36:26;;;;;;;28.90;14.80;;;;;;;-0.01;82.58;100772.34;107565;1241;71304;-68
2022/03/03 04:38:55;;;;;;;28.40;16.20;;;;;;;0.01;82.54;100772.45;107683;1241;74611;-65
2022/03/03 04:41:24;;;;;;;25.60;12.50;;;;;;;-0.09;82.80;100772.75;107717;1241;61769;-69
2022/03/03 04:43:52;;;;;;;22.20;12.20;;;;;;;-0.05;82.79;100771.25;107651;1242;62558;-70
2022/03/03 04:46:22;;;;;;;29.60;15.10;;;;;;;-0.05;82.33;100769.36;108559;1241;74626;-70
2022/03/03 04:48:59;;;;;;;23.40;13.80;;;;;;;-0.06;82.89;100771.29;107987;1241;72890;-69
2022/03/03 04:51:36;;;;;;;27.20;14.40;;;;;;;0.01;82.87;100769.55;107959;1241;70041;-69
2022/03/03 04:54:08;;;;;;;28.20;15.40;;;;;;;0.07;82.56;100771.78;107998;1241;72744;-70
2022/03/03 04:56:38;;;;;;;22.00;12.10;;;;;;;0.08;82.30;100765.09;107994;1241;63132;-68
2022/03/03 04:59:07;;;;;;;24.30;13.20;;;;;;;0.03;81.74;100760.27;107992;1241;62666;-70
2022/03/03 05:01:36;;;;;;;25.50;15.60;;;;;;;0.02;82.09;100758.41;107945;1241;73104;-68
2022/03/03 05:04:06;;;;;;;30.10;15.60;;;;;;;0.01;82.30;100761.19;107832;1244;71634;-71
2022/03/03 05:06:35;;;;;;;26.20;13.70;;;;;;;-0.02;82.57;100763.80;107824;1241;71176;-69
2022/03/03 05:09:04;;;;;;;27.10;15.30;;;;;;;0.06;82.47;100763.94;108064;1241;73712;-70
2022/03/03 05:11:33;;;;;;;28.80;14.70;;;;;;;0.03;82.14;100763.16;107717;1241;61408;-70
2022/03/03 05:14:02;;;;;;;26.20;14.00;;;;;;;-0.04;81.96;100760.60;107966;1241;62039;-69
2022/03/03 05:16:31;;;;;;;26.20;15.20;;;;;;;0.03;82.47;100766.08;107721;1242;75882;-70
2022/03/03 05:19:00;;;;;;;31.80;15.60;;;;;;;-0.01;82.26;100763.95;108037;1241;72533;-70
2022/03/03 05:21:31;;;;;;;21.80;12.70;;;;;;;-0.01;82.58;100760.88;107921;1241;69883;-71
2022/03/03 05:24:00;;;;;;;27.40;15.70;;;;;;;0.03;82.31;100765.23;107904;1241;72390;-70
2022/03/03 05:26:30;;;;;;;25.80;14.00;;;;;;;0.04;82.42;100761.60;107970;1241;62082;-69
2022/03/03 05:28:59;;;;;;;27.70;15.90;;;;;;;0.04;82.17;100760.75;107926;1241;61940;-70
2022/03/03 05:31:28;;;;;;;31.20;16.00;;;;;;;0.04;82.30;100765.18;108019;1241;75283;-72
2022/03/03 05:33:57;;;;;;;24.70;15.20;;;;;;;0.06;82.45;100770.97;107951;1241;72684;-72
2022/03/03 05:36:27;;;;;;;21.00;13.00;;;;;;;-0.02;82.25;100765.89;107912;1241;70833;-70
2022/03/03 05:38:57;;;;;;;23.90;12.40;;;;;;;-0.06;82.59;100764.42;107716;1244;74615;-70
2022/03/03 05:41:26;;;;;;;24.70;14.70;;;;;;;-0.01;82.50;100767.23;108059;1242;60906;-72
2022/03/03 05:43:56;;;;;;;19.80;10.40;;;;;;;-0.03;82.35;100767.25;107616;1244;59715;-73
2022/03/03 05:46:24;;;;;;;22.00;11.70;;;;;;;-0.08;82.15;100766.39;107841;1242;74422;-71
2022/03/03 05:48:54;;;;;;;24.60;13.20;;;;;;;-0.08;82.27;100764.66;107806;1244;70959;-72
2022/03/03 05:51:23;;;;;;;24.20;12.60;;;;;;;-0.03;82.14;100757.00;107746;1242;70119;-69
2022/03/03 05:53:52;;;;;;;28.10;12.90;;;;;;;-0.03;82.38;100763.86;107901;1244;73271;-72
2022/03/03 05:56:22;;;;;;;23.30;13.90;;;;;;;-0.05;82.13;100765.94;107775;1244;444936;-71
2022/03/03 05:58:51;;;;;;;27.40;13.80;;;;;;;-0.05;82.22;100764.58;108097;1244;61324;-73
2022/03/03 06:01:20;;;;;;;28.00;14.90;;;;;;;-0.09;82.44;100767.77;108010;1241;71892;-72
2022/03/03 06:03:50;;;;;;;28.40;13.80;;;;;;;-0.12;82.77;100771.29;107821;1241;70703;-73
2022/03/03 06:06:31;;;;;;;22.10;12.00;;;;;;;-0.07;82.81;100767.39;107963;1244;67692;-70
2022/03/03 06:09:11;;;;;;;27.70;15.80;;;;;;;-0.03;82.68;100763.14;107974;1241;72970;-72
2022/03/03 06:11:57;;;;;;;22.70;13.30;;;;;;;-0.04;82.83;100765.59;107909;1241;60883;-74
2022/03/03 06:14:54;;;;;;;26.20;14.30;;;;;;;-0.05;82.50;100769.02;107924;1244;59507;-73
2022/03/03 06:17:25;;;;;;;27.20;13.20;;;;;;;-0.02;82.69;100764.86;108187;1241;71711;-73
2022/03/03 06:19:54;;;;;;;25.10;14.90;;;;;;;-0.08;82.83;100762.96;107975;1243;70416;-72
2022/03/03 06:22:23;;;;;;;25.80;13.80;;;;;;;-0.08;83.03;100772.20;107951;1241;70152;-73
2022/03/03 06:24:53;;;;;;;25.70;14.00;;;;;;;-0.03;82.95;100770.71;107738;1241;74368;-70
2022/03/03 06:27:26;;;;;;;25.60;15.30;;;;;;;-0.05;82.93;100772.09;107865;1241;62912;-72
2022/03/03 06:29:56;;;;;;;26.00;13.40;;;;;;;-0.07;83.00;100771.50;108286;1241;63072;-71
2022/03/03 06:32:26;;;;;;;21.50;11.70;;;;;;;-0.08;83.27;100769.81;108233;1241;76266;-71
2022/03/03 06:34:55;;;;;;;20.40;11.30;;;;;;;-0.06;83.39;100771.96;108253;1241;71391;-71
2022/03/03 06:37:24;;;;;;;24.60;13.10;;;;;;;-0.06;82.91;100772.31;108201;1241;71400;-71
2022/03/03 06:39:53;;;;;;;25.90;14.20;;;;;;;-0.17;83.40;100771.41;107967;1241;73657;-72
2022/03/03 06:42:22;;;;;;;25.30;12.00;;;;;;;-0.16;83.77;100772.59;108184;1241;62548;-72
2022/03/03 06:44:51;;;;;;;23.50;13.80;;;;;;;-0.20;84.09;100771.00;107724;1244;61938;-74
2022/03/03 06:47:21;;;;;;;28.90;15.60;;;;;;;-0.16;84.20;100775.69;108124;1241;74414;-80
2022/03/03 06:49:50;;;;;;;27.50;14.80;;;;;;;-0.07;84.00;100774.07;107973;1241;69520;-74
2022/03/03 06:52:24;;;;;;;24.40;13.30;;;;;;;-0.09;83.94;100774.96;107998;1242;69540;-74
2022/03/03 06:54:54;;;;;;;30.50;15.90;;;;;;;-0.11;84.04;100769.55;107857;1241;72399;-74
2022/03/03 06:57:23;;;;;;;30.50;16.00;;;;;;;-0.11;84.36;100774.18;108052;1241;63538;-73
2022/03/03 06:59:59;;;;;;;29.80;15.30;;;;;;;-0.10;84.21;100775.52;107791;1244;59580;-73
2022/03/03 07:02:29;;;;;;;30.30;15.80;;;;;;;-0.21;84.48;100772.05;108048;1241;74225;-74
2022/03/03 07:05:01;;;;;;;32.10;15.40;;;;;;;-0.21;84.69;100768.45;107971;1241;70797;-72
2022/03/03 07:07:34;;;;;;;25.30;15.20;;;;;;;-0.15;84.84;100769.15;108040;1241;69703;-74
2022/03/03 07:10:03;;;;;;;29.40;15.10;;;;;;;-0.09;84.91;100768.13;108287;1241;73700;-72
2022/03/03 07:12:34;;;;;;;30.10;16.50;;;;;;;-0.06;84.69;100767.54;108310;1241;62524;-74
2022/03/03 07:15:05;;;;;;;27.50;16.00;;;;;;;-0.03;84.81;100766.59;108269;1244;60202;-77
2022/03/03 07:17:51;;;;;;;33.60;17.40;;;;;;;-0.07;84.85;100771.83;108245;1241;73768;-73
2022/03/03 07:20:51;;;;;;;34.60;17.80;;;;;;;-0.05;85.16;100771.77;108324;1241;72688;-75
2022/03/03 07:23:35;;;;;;;34.70;18.00;;;;;;;-0.00;85.42;100778.50;107969;1244;68789;-74
2022/03/03 07:26:13;;;;;;;23.70;12.80;;;;;;;0.01;84.95;100780.35;107932;1241;71203;-73
2022/03/03 07:28:53;;;;;;;35.70;19.10;;;;;;;-0.00;84.58;100786.02;107808;1241;61422;-74
2022/03/03 07:31:26;;;;;;;34.20;17.70;;;;;;;-0.01;84.72;100782.95;108105;1241;60317;-72
2022/03/03 07:33:59;;;;;;;26.90;15.40;;;;;;;-0.00;84.57;100777.47;108086;1241;75319;-73
2022/03/03 07:36:34;;;;;;;21.40;12.40;;;;;;;0.00;84.31;100783.30;108098;1241;73966;-73
2022/03/03 07:39:16;;;;;;;32.50;19.30;;;;;;;0.01;84.09;100776.91;108110;1241;72045;-73
2022/03/03 07:41:45;;;;;;;32.00;18.40;;;;;;;0.05;84.08;100777.50;107715;1244;74224;-72
2022/03/03 07:44:14;;;;;;;25.10;14.00;;;;;;;0.04;84.58;100772.04;107861;1244;60242;-73
2022/03/03 07:46:44;;;;;;;31.60;17.20;;;;;;;0.15;84.30;100771.40;107916;1241;60070;-73
2022/03/03 07:49:13;;;;;;;24.00;14.60;;;;;;;0.17;83.98;100771.33;108093;1241;74230;-74
2022/03/03 07:51:42;;;;;;;23.60;13.10;;;;;;;0.19;84.04;100771.11;107773;1244;71733;-73
2022/03/03 07:54:11;;;;;;;29.50;16.60;;;;;;;0.25;83.72;100770.95;107762;1244;70565;-73
2022/03/03 07:56:47;;;;;;;22.60;13.60;;;;;;;0.26;83.76;100769.86;108037;1241;71682;-72
2022/03/03 07:59:19;;;;;;;29.40;16.50;;;;;;;0.22;83.56;100762.98;108131;1241;59810;-74
2022/03/03 08:01:48;;;;;;;23.00;14.40;;;;;;;0.17;83.81;100766.05;108078;1241;60441;-74
2022/03/03 08:04:20;;;;;;;25.80;14.50;;;;;;;0.31;83.69;100762.55;107995;1240;74512;-73
2022/03/03 08:06:52;;;;;;;28.70;17.50;;;;;;;0.37;83.68;100763.04;107761;1241;71933;-73
2022/03/03 08:09:23;;;;;;;27.30;15.30;;;;;;;0.50;83.72;100759.56;107843;1241;70409;-73
2022/03/03 08:11:54;;;;;;;25.50;15.50;;;;;;;0.60;83.46;100756.20;107971;1243;71835;-76
2022/03/03 08:14:24;;;;;;;24.50;14.00;;;;;;;0.70;83.22;100756.56;107856;1241;62121;-74
2022/03/03 08:16:53;;;;;;;25.70;14.10;;;;;;;0.69;82.38;100761.73;107910;1241;60850;-77
2022/03/03 08:19:23;;;;;;;26.50;16.00;;;;;;;0.77;82.08;100756.52;108036;1241;71463;-72
2022/03/03 08:21:51;;;;;;;24.80;15.70;;;;;;;0.66;82.12;100759.77;107714;1244;72115;-74
2022/03/03 08:24:23;;;;;;;25.80;14.80;;;;;;;0.71;82.46;100760.81;107640;1244;68706;-74
2022/03/03 08:26:55;;;;;;;25.40;13.60;;;;;;;0.84;82.16;100763.17;107857;1241;71962;-73
2022/03/03 08:29:24;;;;;;;23.30;13.80;;;;;;;0.91;81.90;100759.17;107961;1241;60723;-73
2022/03/03 08:31:57;;;;;;;27.20;15.00;;;;;;;0.92;81.95;100754.36;108090;1241;59588;-76
2022/03/03 08:34:59;;;;;;;22.40;14.50;;;;;;;1.01;82.47;100748.40;107805;1241;74721;-74
2022/03/03 08:37:38;;;;;;;26.90;16.20;;;;;;;1.19;81.69;100751.73;108040;1241;71681;-73
2022/03/03 08:40:13;;;;;;;26.90;15.50;;;;;;;1.27;81.31;100753.70;108077;1241;69003;-73
2022/03/03 08:42:49;;;;;;;25.10;16.70;;;;;;;1.38;81.43;100752.67;107875;1241;74186;-73
2022/03/03 08:45:20;;;;;;;23.80;14.10;;;;;;;1.40;80.72;100749.16;107796;1241;59332;-73
2022/03/03 08:47:58;;;;;;;27.40;16.60;;;;;;;1.33;81.13;100753.86;107769;1241;61041;-73
2022/03/03 08:50:33;;;;;;;22.30;13.70;;;;;;;1.35;81.33;100754.15;107765;1241;75264;-73
2022/03/03 08:53:06;;;;;;;31.30;16.10;;;;;;;1.31;80.42;100753.58;107889;1241;72714;-73
2022/03/03 08:55:37;;;;;;;23.60;14.90;;;;;;;1.27;80.58;100751.48;107797;1241;71833;-72
2022/03/03 08:58:07;;;;;;;24.80;14.20;;;;;;;1.29;80.51;100756.73;108274;1241;75591;-74
2022/03/03 09:00:37;;;;;;;20.60;12.80;;;;;;;1.31;80.21;100753.05;107843;1244;60950;-73
2022/03/03 09:03:07;;;;;;;20.20;13.70;;;;;;;1.28;80.11;100754.88;107829;1241;60610;-74
2022/03/03 09:05:36;;;;;;;21.20;11.10;;;;;;;1.27;79.91;100748.71;107809;1244;73035;-74
2022/03/03 09:08:05;;;;;;;24.20;13.80;;;;;;;1.18;79.90;100746.98;108021;1241;70612;-73
2022/03/03 09:10:34;;;;;;;24.40;13.90;;;;;;;1.17;80.16;100747.36;107680;1241;68733;-73
2022/03/03 09:13:03;;;;;;;22.10;14.20;;;;;;;1.14;79.97;100747.80;107796;1244;71933;-74
2022/03/03 09:15:33;;;;;;;22.10;13.20;;;;;;;1.08;80.05;100748.35;108058;1241;60866;-73
2022/03/03 09:18:03;;;;;;;23.30;14.70;;;;;;;1.10;79.90;100751.38;107817;1244;59560;-74
2022/03/03 09:20:33;;;;;;;22.80;12.30;;;;;;;1.09;80.18;100754.48;107708;1241;73691;-74
2022/03/03 09:23:03;;;;;;;24.90;15.30;;;;;;;1.08;80.32;100752.29;107957;1241;72065;-74
2022/03/03 09:25:36;;;;;;;26.90;15.70;;;;;;;1.14;80.46;100755.01;107500;1241;71412;-74
2022/03/03 09:28:06;;;;;;;23.60;15.00;;;;;;;1.16;80.68;100757.00;108084;1241;74235;-74
2022/03/03 09:30:35;;;;;;;23.00;14.80;;;;;;;1.23;80.20;100757.26;108061;1241;62578;-76
2022/03/03 09:33:05;;;;;;;26.60;15.70;;;;;;;1.17;79.36;100758.15;108206;1241;60737;-75
2022/03/03 09:35:34;;;;;;;22.90;13.80;;;;;;;1.23;79.75;100749.90;107932;1241;74146;-74
2022/03/03 09:38:03;;;;;;;23.30;14.30;;;;;;;1.35;79.77;100755.16;107889;1241;70755;-76
2022/03/03 09:40:32;;;;;;;27.80;16.60;;;;;;;1.37;79.37;100747.23;107923;1241;70577;-75
2022/03/03 09:43:05;;;;;;;24.10;13.80;;;;;;;1.33;79.51;100758.48;108169;1241;75318;-76
2022/03/03 09:45:36;;;;;;;22.20;14.20;;;;;;;1.39;79.28;100752.98;107922;1244;61829;-74
2022/03/03 09:48:07;;;;;;;22.40;12.00;;;;;;;1.35;79.18;100751.56;107973;1242;63025;-75
2022/03/03 09:50:39;;;;;;;22.20;14.30;;;;;;;1.34;79.69;100754.16;107923;1241;74909;-74
2022/03/03 09:53:13;;;;;;;28.90;16.40;;;;;;;1.33;79.61;100750.07;107958;1244;69009;-75
2022/03/03 09:55:44;;;;;;;24.50;14.80;;;;;;;1.40;79.87;100747.79;107953;1241;70829;-73
2022/03/03 09:58:15;;;;;;;22.80;13.90;;;;;;;1.43;79.52;100744.09;107889;1244;72607;-74
2022/03/03 10:00:44;;;;;;;22.60;13.60;;;;;;;1.37;79.20;100741.36;107916;1244;60779;-74
2022/03/03 10:03:18;;;;;;;21.90;14.50;;;;;;;1.44;79.22;100741.66;107699;1241;57918;-74
2022/03/03 10:05:52;;;;;;;19.60;10.80;;;;;;;1.34;78.71;100743.35;108088;1241;73342;-74
2022/03/03 10:08:25;;;;;;;20.30;11.90;;;;;;;1.41;79.15;100742.23;108003;1243;71405;-73
2022/03/03 10:11:03;;;;;;;27.50;14.70;;;;;;;1.53;78.75;100738.95;107872;1241;67586;-73
2022/03/03 10:13:52;;;;;;;21.40;12.80;;;;;;;1.51;78.81;100736.59;107810;1244;72028;-74
2022/03/03 10:16:26;;;;;;;21.90;13.10;;;;;;;1.53;78.73;100734.45;108129;1241;61466;-73
2022/03/03 10:19:05;;;;;;;21.90;13.10;;;;;;;1.54;78.79;100732.72;108077;1241;60566;-74
2022/03/03 10:21:38;;;;;;;24.30;15.60;;;;;;;1.49;78.62;100728.06;108050;1241;74947;-73
2022/03/03 10:24:21;;;;;;;19.20;12.10;;;;;;;1.50;78.62;100727.89;107914;1244;70283;-74
2022/03/03 10:27:19;;;;;;;17.50;9.80;;;;;;;1.45;78.61;100724.96;108008;1242;68683;-72
2022/03/03 10:29:48;;;;;;;20.10;13.60;;;;;;;1.48;78.34;100727.45;108032;1241;74018;-74
2022/03/03 10:32:25;;;;;;;22.20;13.20;;;;;;;1.38;79.23;100719.17;108040;1241;60243;-74
2022/03/03 10:35:01;;;;;;;23.90;15.20;;;;;;;1.47;78.91;100724.38;107698;1244;59710;-71
2022/03/03 10:37:32;;;;;;;23.10;14.20;;;;;;;1.50;79.02;100722.39;107688;1244;74396;-73
2022/03/03 10:40:01;;;;;;;24.10;13.40;;;;;;;1.51;79.27;100722.02;108018;1241;72110;-75
2022/03/03 10:42:37;;;;;;;17.40;11.20;;;;;;;1.57;78.67;100722.48;108102;1241;70536;-72
2022/03/03 10:45:17;;;;;;;23.00;15.40;;;;;;;1.50;78.09;100719.83;108328;1242;73424;-71
2022/03/03 10:47:59;;;;;;;23.70;13.90;;;;;;;1.51;78.91;100716.70;108216;1244;62807;-74
2022/03/03 10:50:45;;;;;;;21.10;11.40;;;;;;;1.56;79.24;100717.20;108008;1242;59608;-73
2022/03/03 10:53:25;;;;;;;25.60;15.50;;;;;;;1.59;78.57;100713.66;108128;1241;73407;-73
2022/03/03 10:56:07;;;;;;;25.90;16.90;;;;;;;1.62;78.03;100716.66;107923;1244;70055;-73
2022/03/03 10:58:44;;;;;;;26.60;16.50;;;;;;;1.65;78.57;100716.02;108145;1241;70525;-72
2022/03/03 11:01:16;;;;;;;17.70;9.80;;;;;;;1.69;78.28;100714.70;107839;1244;72283;-72
2022/03/03 11:03:49;;;;;;;26.40;16.80;;;;;;;1.73;77.59;100713.35;107803;1243;59744;-72
2022/03/03 11:06:25;;;;;;;27.60;16.10;;;;;;;1.81;78.04;100714.44;108163;1241;62332;-72
2022/03/03 11:08:55;;;;;;;24.00;15.10;;;;;;;1.92;78.14;100710.44;108223;1241;76128;-72
2022/03/03 11:11:26;;;;;;;24.80;12.80;;;;;;;1.94;77.50;100704.66;108307;1241;70150;-73
2022/03/03 11:13:54;;;;;;;22.60;14.20;;;;;;;2.04;77.07;100699.30;108210;1241;69708;-73
2022/03/03 11:16:25;;;;;;;25.00;13.80;;;;;;;2.14;76.52;100699.82;107941;1241;74040;-72
2022/03/03 11:18:55;;;;;;;22.30;14.50;;;;;;;2.33;76.72;100691.33;108090;1241;59764;-74
2022/03/03 11:21:24;;;;;;;21.20;13.60;;;;;;;2.44;76.20;100691.28;107897;1244;59551;-73
2022/03/03 11:23:59;;;;;;;23.90;14.90;;;;;;;2.50;75.33;100692.23;107790;1242;75446;-73
2022/03/03 11:26:40;;;;;;;21.90;13.20;;;;;;;2.50;75.95;100695.52;107829;1242;69795;-74
2022/03/03 11:29:15;;;;;;;22.00;14.40;;;;;;;2.43;75.12;100698.52;107809;1244;67888;-74